sensor_id;sensor_type;location;lat;lon;timestamp;P1;durP1;ratioP1;P2;durP2;ratioP2
51907;SDS011;39320;53.214;6.556;2023-04-09T00:02:17;29.10;;;25.92;;
51907;SDS011;39320;53.214;6.556;2023-04-09T00:04:43;30.60;;;26.55;;
51907;SDS011;39320;53.214;6.556;2023-04-09T00:07:09;27.88;;;24.90;;
51907;SDS011;39320;53.214;6.556;2023-04-09T00:09:35;29.38;;;26.20;;
51907;SDS011;39320;53.214;6.556;2023-04-09T00:12:01;28.95;;;25.70;;
51907;SDS011;39320;53.214;6.556;2023-04-09T00:14:27;30.08;;;25.17;;
51907;SDS011;39320;53.214;6.556;2023-04-09T00:16:53;28.52;;;25.52;;
51907;SDS011;39320;53.214;6.556;2023-04-09T00:19:19;29.42;;;24.52;;
51907;SDS011;39320;53.214;6.556;2023-04-09T00:21:45;29.35;;;24.85;;
51907;SDS011;39320;53.214;6.556;2023-04-09T00:24:12;25.98;;;23.25;;
51907;SDS011;39320;53.214;6.556;2023-04-09T00:26:38;27.30;;;23.52;;
51907;SDS011;39320;53.214;6.556;2023-04-09T00:29:04;26.92;;;24.08;;
51907;SDS011;39320;53.214;6.556;2023-04-09T00:31:30;27.30;;;23.88;;
51907;SDS011;39320;53.214;6.556;2023-04-09T00:33:57;28.50;;;22.90;;
51907;SDS011;39320;53.214;6.556;2023-04-09T00:36:22;27.27;;;24.27;;
51907;SDS011;39320;53.214;6.556;2023-04-09T00:38:51;29.40;;;23.77;;
51907;SDS011;39320;53.214;6.556;2023-04-09T00:41:18;26.38;;;23.20;;
51907;SDS011;39320;53.214;6.556;2023-04-09T00:43:44;32.15;;;25.45;;
51907;SDS011;39320;53.214;6.556;2023-04-09T00:46:10;28.90;;;23.08;;
51907;SDS011;39320;53.214;6.556;2023-04-09T00:48:36;29.02;;;25.00;;
51907;SDS011;39320;53.214;6.556;2023-04-09T00:51:02;30.65;;;25.10;;
51907;SDS011;39320;53.214;6.556;2023-04-09T00:53:28;26.13;;;23.30;;
51907;SDS011;39320;53.214;6.556;2023-04-09T00:55:54;26.75;;;23.17;;
51907;SDS011;39320;53.214;6.556;2023-04-09T00:58:20;25.50;;;21.42;;
51907;SDS011;39320;53.214;6.556;2023-04-09T01:00:46;25.88;;;20.67;;
51907;SDS011;39320;53.214;6.556;2023-04-09T01:03:12;21.77;;;19.48;;
51907;SDS011;39320;53.214;6.556;2023-04-09T01:08:18;20.15;;;17.45;;
51907;SDS011;39320;53.214;6.556;2023-04-09T01:10:55;18.48;;;16.52;;
51907;SDS011;39320;53.214;6.556;2023-04-09T01:13:38;21.00;;;16.30;;
51907;SDS011;39320;53.214;6.556;2023-04-09T01:16:14;18.30;;;15.95;;
51907;SDS011;39320;53.214;6.556;2023-04-09T01:18:43;20.73;;;16.75;;
51907;SDS011;39320;53.214;6.556;2023-04-09T01:21:12;19.75;;;16.92;;
51907;SDS011;39320;53.214;6.556;2023-04-09T01:29:15;16.98;;;15.18;;
51907;SDS011;39320;53.214;6.556;2023-04-09T01:31:44;16.95;;;15.20;;
51907;SDS011;39320;53.214;6.556;2023-04-09T01:34:13;17.23;;;14.65;;
51907;SDS011;39320;53.214;6.556;2023-04-09T01:36:41;19.55;;;15.80;;
51907;SDS011;39320;53.214;6.556;2023-04-09T01:39:13;17.90;;;14.98;;
51907;SDS011;39320;53.214;6.556;2023-04-09T01:41:39;18.00;;;15.50;;
51907;SDS011;39320;53.214;6.556;2023-04-09T01:44:05;16.58;;;14.88;;
51907;SDS011;39320;53.214;6.556;2023-04-09T01:46:33;16.02;;;13.95;;
51907;SDS011;39320;53.214;6.556;2023-04-09T01:49:00;17.65;;;14.85;;
51907;SDS011;39320;53.214;6.556;2023-04-09T01:51:27;16.13;;;14.48;;
51907;SDS011;39320;53.214;6.556;2023-04-09T01:53:53;15.98;;;14.32;;
51907;SDS011;39320;53.214;6.556;2023-04-09T01:56:20;17.40;;;15.60;;
51907;SDS011;39320;53.214;6.556;2023-04-09T01:58:46;16.95;;;15.27;;
51907;SDS011;39320;53.214;6.556;2023-04-09T02:01:19;14.50;;;12.85;;
51907;SDS011;39320;53.214;6.556;2023-04-09T02:03:55;15.32;;;13.15;;
51907;SDS011;39320;53.214;6.556;2023-04-09T02:09:08;15.77;;;14.18;;
51907;SDS011;39320;53.214;6.556;2023-04-09T02:11:39;15.57;;;12.70;;
51907;SDS011;39320;53.214;6.556;2023-04-09T02:14:08;15.77;;;14.13;;
51907;SDS011;39320;53.214;6.556;2023-04-09T02:16:35;15.07;;;13.57;;
51907;SDS011;39320;53.214;6.556;2023-04-09T02:19:02;15.23;;;13.00;;
51907;SDS011;39320;53.214;6.556;2023-04-09T02:21:28;14.77;;;13.27;;
51907;SDS011;39320;53.214;6.556;2023-04-09T02:23:55;13.93;;;12.57;;
51907;SDS011;39320;53.214;6.556;2023-04-09T02:26:21;14.38;;;12.65;;
51907;SDS011;39320;53.214;6.556;2023-04-09T02:28:48;14.13;;;12.68;;
51907;SDS011;39320;53.214;6.556;2023-04-09T02:31:14;13.88;;;12.48;;
51907;SDS011;39320;53.214;6.556;2023-04-09T02:33:39;15.27;;;13.73;;
51907;SDS011;39320;53.214;6.556;2023-04-09T02:36:09;14.50;;;12.98;;
51907;SDS011;39320;53.214;6.556;2023-04-09T02:38:36;13.90;;;12.48;;
51907;SDS011;39320;53.214;6.556;2023-04-09T02:41:01;16.55;;;13.25;;
51907;SDS011;39320;53.214;6.556;2023-04-09T02:43:30;18.23;;;13.70;;
51907;SDS011;39320;53.214;6.556;2023-04-09T02:45:56;15.95;;;12.85;;
51907;SDS011;39320;53.214;6.556;2023-04-09T02:48:21;16.02;;;13.52;;
51907;SDS011;39320;53.214;6.556;2023-04-09T02:50:47;15.85;;;14.20;;
51907;SDS011;39320;53.214;6.556;2023-04-09T02:53:13;16.33;;;14.63;;
51907;SDS011;39320;53.214;6.556;2023-04-09T02:55:39;21.42;;;14.25;;
51907;SDS011;39320;53.214;6.556;2023-04-09T02:58:04;14.75;;;13.25;;
51907;SDS011;39320;53.214;6.556;2023-04-09T03:00:30;15.52;;;13.98;;
51907;SDS011;39320;53.214;6.556;2023-04-09T03:02:56;15.57;;;13.95;;
51907;SDS011;39320;53.214;6.556;2023-04-09T03:05:22;15.60;;;14.10;;
51907;SDS011;39320;53.214;6.556;2023-04-09T03:07:48;18.27;;;16.30;;
51907;SDS011;39320;53.214;6.556;2023-04-09T03:10:14;18.00;;;16.00;;
51907;SDS011;39320;53.214;6.556;2023-04-09T03:12:40;15.43;;;13.70;;
51907;SDS011;39320;53.214;6.556;2023-04-09T03:15:08;16.75;;;14.98;;
51907;SDS011;39320;53.214;6.556;2023-04-09T03:17:35;17.10;;;15.35;;
51907;SDS011;39320;53.214;6.556;2023-04-09T03:20:01;18.48;;;15.77;;
51907;SDS011;39320;53.214;6.556;2023-04-09T03:22:27;18.95;;;16.20;;
51907;SDS011;39320;53.214;6.556;2023-04-09T03:24:52;17.63;;;15.85;;
51907;SDS011;39320;53.214;6.556;2023-04-09T03:27:18;17.65;;;15.73;;
51907;SDS011;39320;53.214;6.556;2023-04-09T03:29:44;18.95;;;16.38;;
51907;SDS011;39320;53.214;6.556;2023-04-09T03:32:10;17.50;;;15.48;;
51907;SDS011;39320;53.214;6.556;2023-04-09T03:34:36;18.33;;;16.45;;
51907;SDS011;39320;53.214;6.556;2023-04-09T03:37:01;18.60;;;16.50;;
51907;SDS011;39320;53.214;6.556;2023-04-09T03:39:27;20.15;;;16.27;;
51907;SDS011;39320;53.214;6.556;2023-04-09T03:41:55;18.30;;;16.40;;
51907;SDS011;39320;53.214;6.556;2023-04-09T03:44:22;16.48;;;14.77;;
51907;SDS011;39320;53.214;6.556;2023-04-09T03:46:48;19.52;;;16.20;;
51907;SDS011;39320;53.214;6.556;2023-04-09T03:49:14;18.95;;;16.65;;
51907;SDS011;39320;53.214;6.556;2023-04-09T03:51:40;17.45;;;15.57;;
51907;SDS011;39320;53.214;6.556;2023-04-09T03:54:09;16.50;;;14.70;;
51907;SDS011;39320;53.214;6.556;2023-04-09T03:56:34;17.25;;;15.50;;
51907;SDS011;39320;53.214;6.556;2023-04-09T03:59:00;18.23;;;16.15;;
51907;SDS011;39320;53.214;6.556;2023-04-09T04:01:28;17.15;;;14.98;;
51907;SDS011;39320;53.214;6.556;2023-04-09T04:03:54;17.75;;;15.85;;
51907;SDS011;39320;53.214;6.556;2023-04-09T04:06:20;17.67;;;15.88;;
51907;SDS011;39320;53.214;6.556;2023-04-09T04:08:45;17.58;;;15.73;;
51907;SDS011;39320;53.214;6.556;2023-04-09T04:11:11;17.35;;;15.50;;
51907;SDS011;39320;53.214;6.556;2023-04-09T04:13:37;19.13;;;17.08;;
51907;SDS011;39320;53.214;6.556;2023-04-09T04:16:07;17.75;;;15.95;;
51907;SDS011;39320;53.214;6.556;2023-04-09T04:18:33;17.67;;;15.77;;
51907;SDS011;39320;53.214;6.556;2023-04-09T04:21:00;16.80;;;15.07;;
51907;SDS011;39320;53.214;6.556;2023-04-09T04:23:26;17.00;;;15.20;;
51907;SDS011;39320;53.214;6.556;2023-04-09T04:25:52;18.52;;;16.17;;
51907;SDS011;39320;53.214;6.556;2023-04-09T04:28:18;16.33;;;14.65;;
51907;SDS011;39320;53.214;6.556;2023-04-09T04:30:44;18.08;;;14.98;;
51907;SDS011;39320;53.214;6.556;2023-04-09T04:33:09;18.85;;;16.92;;
51907;SDS011;39320;53.214;6.556;2023-04-09T04:35:35;19.52;;;15.75;;
51907;SDS011;39320;53.214;6.556;2023-04-09T04:38:01;18.30;;;15.77;;
51907;SDS011;39320;53.214;6.556;2023-04-09T04:40:27;19.98;;;15.30;;
51907;SDS011;39320;53.214;6.556;2023-04-09T04:42:53;19.35;;;15.40;;
51907;SDS011;39320;53.214;6.556;2023-04-09T04:45:19;17.02;;;15.30;;
51907;SDS011;39320;53.214;6.556;2023-04-09T04:47:45;16.38;;;14.75;;
51907;SDS011;39320;53.214;6.556;2023-04-09T04:50:10;17.15;;;15.35;;
51907;SDS011;39320;53.214;6.556;2023-04-09T04:52:36;19.33;;;15.25;;
51907;SDS011;39320;53.214;6.556;2023-04-09T04:55:04;17.40;;;15.55;;
51907;SDS011;39320;53.214;6.556;2023-04-09T04:57:31;18.23;;;15.82;;
51907;SDS011;39320;53.214;6.556;2023-04-09T04:59:56;18.88;;;15.95;;
51907;SDS011;39320;53.214;6.556;2023-04-09T05:02:22;16.40;;;14.70;;
51907;SDS011;39320;53.214;6.556;2023-04-09T05:04:48;18.77;;;16.98;;
51907;SDS011;39320;53.214;6.556;2023-04-09T05:07:14;17.52;;;15.07;;
51907;SDS011;39320;53.214;6.556;2023-04-09T05:09:40;17.30;;;15.30;;
51907;SDS011;39320;53.214;6.556;2023-04-09T05:12:07;16.70;;;14.95;;
51907;SDS011;39320;53.214;6.556;2023-04-09T05:14:33;18.55;;;16.63;;
51907;SDS011;39320;53.214;6.556;2023-04-09T05:16:59;23.25;;;18.27;;
51907;SDS011;39320;53.214;6.556;2023-04-09T05:19:25;21.20;;;18.80;;
51907;SDS011;39320;53.214;6.556;2023-04-09T05:21:51;19.27;;;16.35;;
51907;SDS011;39320;53.214;6.556;2023-04-09T05:24:16;19.17;;;16.90;;
51907;SDS011;39320;53.214;6.556;2023-04-09T05:26:42;21.05;;;17.45;;
51907;SDS011;39320;53.214;6.556;2023-04-09T05:29:08;19.75;;;17.08;;
51907;SDS011;39320;53.214;6.556;2023-04-09T05:31:34;18.20;;;16.40;;
51907;SDS011;39320;53.214;6.556;2023-04-09T05:34:00;21.50;;;18.63;;
51907;SDS011;39320;53.214;6.556;2023-04-09T05:36:26;18.50;;;16.52;;
51907;SDS011;39320;53.214;6.556;2023-04-09T05:38:51;18.85;;;16.70;;
51907;SDS011;39320;53.214;6.556;2023-04-09T05:41:17;20.15;;;17.27;;
51907;SDS011;39320;53.214;6.556;2023-04-09T05:43:43;19.08;;;17.05;;
51907;SDS011;39320;53.214;6.556;2023-04-09T05:46:09;18.75;;;16.75;;
51907;SDS011;39320;53.214;6.556;2023-04-09T05:48:35;22.27;;;18.08;;
51907;SDS011;39320;53.214;6.556;2023-04-09T05:51:01;20.20;;;17.50;;
51907;SDS011;39320;53.214;6.556;2023-04-09T05:53:27;21.42;;;18.27;;
51907;SDS011;39320;53.214;6.556;2023-04-09T05:55:53;22.10;;;18.70;;
51907;SDS011;39320;53.214;6.556;2023-04-09T05:58:19;20.30;;;18.17;;
51907;SDS011;39320;53.214;6.556;2023-04-09T06:00:45;19.67;;;17.55;;
51907;SDS011;39320;53.214;6.556;2023-04-09T06:03:11;20.17;;;18.00;;
51907;SDS011;39320;53.214;6.556;2023-04-09T06:05:37;19.45;;;17.30;;
51907;SDS011;39320;53.214;6.556;2023-04-09T06:08:02;19.55;;;17.08;;
51907;SDS011;39320;53.214;6.556;2023-04-09T06:10:30;18.10;;;16.25;;
51907;SDS011;39320;53.214;6.556;2023-04-09T06:12:57;20.33;;;17.13;;
51907;SDS011;39320;53.214;6.556;2023-04-09T06:15:22;19.17;;;17.15;;
51907;SDS011;39320;53.214;6.556;2023-04-09T06:17:48;17.60;;;15.85;;
51907;SDS011;39320;53.214;6.556;2023-04-09T06:20:14;17.83;;;14.75;;
51907;SDS011;39320;53.214;6.556;2023-04-09T06:22:40;17.55;;;15.75;;
51907;SDS011;39320;53.214;6.556;2023-04-09T06:25:05;16.13;;;14.63;;
51907;SDS011;39320;53.214;6.556;2023-04-09T06:27:31;14.02;;;12.63;;
51907;SDS011;39320;53.214;6.556;2023-04-09T06:29:57;14.13;;;12.50;;
51907;SDS011;39320;53.214;6.556;2023-04-09T06:32:23;15.43;;;13.30;;
51907;SDS011;39320;53.214;6.556;2023-04-09T06:34:49;14.52;;;12.98;;
51907;SDS011;39320;53.214;6.556;2023-04-09T06:37:14;14.80;;;13.23;;
51907;SDS011;39320;53.214;6.556;2023-04-09T06:39:40;14.75;;;13.02;;
51907;SDS011;39320;53.214;6.556;2023-04-09T06:42:06;14.88;;;13.02;;
51907;SDS011;39320;53.214;6.556;2023-04-09T06:44:32;15.00;;;13.40;;
51907;SDS011;39320;53.214;6.556;2023-04-09T06:46:58;15.38;;;13.80;;
51907;SDS011;39320;53.214;6.556;2023-04-09T06:49:24;15.80;;;14.20;;
51907;SDS011;39320;53.214;6.556;2023-04-09T06:51:50;15.70;;;13.93;;
51907;SDS011;39320;53.214;6.556;2023-04-09T06:54:17;15.32;;;13.65;;
51907;SDS011;39320;53.214;6.556;2023-04-09T06:56:44;16.35;;;13.88;;
51907;SDS011;39320;53.214;6.556;2023-04-09T06:59:10;14.68;;;12.98;;
51907;SDS011;39320;53.214;6.556;2023-04-09T07:01:36;15.23;;;13.63;;
51907;SDS011;39320;53.214;6.556;2023-04-09T07:04:03;14.75;;;13.27;;
51907;SDS011;39320;53.214;6.556;2023-04-09T07:06:29;14.07;;;12.57;;
51907;SDS011;39320;53.214;6.556;2023-04-09T07:08:55;16.90;;;14.18;;
51907;SDS011;39320;53.214;6.556;2023-04-09T07:11:21;15.40;;;13.75;;
51907;SDS011;39320;53.214;6.556;2023-04-09T07:13:47;16.58;;;14.65;;
51907;SDS011;39320;53.214;6.556;2023-04-09T07:16:12;17.25;;;15.45;;
51907;SDS011;39320;53.214;6.556;2023-04-09T07:18:38;17.52;;;14.88;;
51907;SDS011;39320;53.214;6.556;2023-04-09T07:21:04;18.30;;;16.40;;
51907;SDS011;39320;53.214;6.556;2023-04-09T07:23:33;16.25;;;14.40;;
51907;SDS011;39320;53.214;6.556;2023-04-09T07:26:03;17.02;;;15.32;;
51907;SDS011;39320;53.214;6.556;2023-04-09T07:28:30;18.88;;;15.85;;
51907;SDS011;39320;53.214;6.556;2023-04-09T07:30:56;16.25;;;14.35;;
51907;SDS011;39320;53.214;6.556;2023-04-09T07:33:23;15.73;;;14.13;;
51907;SDS011;39320;53.214;6.556;2023-04-09T07:35:49;17.77;;;15.88;;
51907;SDS011;39320;53.214;6.556;2023-04-09T07:38:15;15.38;;;13.77;;
51907;SDS011;39320;53.214;6.556;2023-04-09T07:40:41;18.20;;;15.52;;
51907;SDS011;39320;53.214;6.556;2023-04-09T07:43:07;17.45;;;15.65;;
51907;SDS011;39320;53.214;6.556;2023-04-09T07:45:32;17.50;;;15.73;;
51907;SDS011;39320;53.214;6.556;2023-04-09T07:48:01;19.05;;;17.08;;
51907;SDS011;39320;53.214;6.556;2023-04-09T07:50:28;17.42;;;15.63;;
51907;SDS011;39320;53.214;6.556;2023-04-09T07:52:54;18.45;;;16.38;;
51907;SDS011;39320;53.214;6.556;2023-04-09T07:55:20;20.00;;;16.63;;
51907;SDS011;39320;53.214;6.556;2023-04-09T07:57:46;17.75;;;15.75;;
51907;SDS011;39320;53.214;6.556;2023-04-09T08:00:12;19.30;;;17.30;;
51907;SDS011;39320;53.214;6.556;2023-04-09T08:02:39;17.88;;;15.68;;
51907;SDS011;39320;53.214;6.556;2023-04-09T08:05:05;19.83;;;17.73;;
51907;SDS011;39320;53.214;6.556;2023-04-09T08:07:31;16.67;;;14.48;;
51907;SDS011;39320;53.214;6.556;2023-04-09T08:10:01;19.40;;;16.42;;
51907;SDS011;39320;53.214;6.556;2023-04-09T08:12:34;17.48;;;15.63;;
51907;SDS011;39320;53.214;6.556;2023-04-09T08:15:03;19.58;;;17.58;;
51907;SDS011;39320;53.214;6.556;2023-04-09T08:17:32;17.85;;;15.35;;
51907;SDS011;39320;53.214;6.556;2023-04-09T08:20:01;18.50;;;15.68;;
51907;SDS011;39320;53.214;6.556;2023-04-09T08:22:28;18.15;;;16.05;;
51907;SDS011;39320;53.214;6.556;2023-04-09T08:24:55;18.48;;;15.45;;
51907;SDS011;39320;53.214;6.556;2023-04-09T08:27:22;18.67;;;16.42;;
51907;SDS011;39320;53.214;6.556;2023-04-09T08:29:48;17.90;;;15.35;;
51907;SDS011;39320;53.214;6.556;2023-04-09T08:32:18;17.15;;;15.30;;
51907;SDS011;39320;53.214;6.556;2023-04-09T08:34:46;18.35;;;16.15;;
51907;SDS011;39320;53.214;6.556;2023-04-09T08:37:15;17.23;;;15.35;;
51907;SDS011;39320;53.214;6.556;2023-04-09T08:39:41;17.98;;;16.08;;
51907;SDS011;39320;53.214;6.556;2023-04-09T08:42:07;18.27;;;16.02;;
51907;SDS011;39320;53.214;6.556;2023-04-09T08:44:36;18.58;;;16.35;;
51907;SDS011;39320;53.214;6.556;2023-04-09T08:47:06;16.48;;;14.70;;
51907;SDS011;39320;53.214;6.556;2023-04-09T08:49:37;16.38;;;14.70;;
51907;SDS011;39320;53.214;6.556;2023-04-09T08:52:05;17.23;;;14.75;;
51907;SDS011;39320;53.214;6.556;2023-04-09T08:54:32;17.27;;;15.35;;
51907;SDS011;39320;53.214;6.556;2023-04-09T08:56:58;17.38;;;14.45;;
51907;SDS011;39320;53.214;6.556;2023-04-09T08:59:23;16.45;;;14.20;;
51907;SDS011;39320;53.214;6.556;2023-04-09T09:02:05;15.80;;;13.95;;
51907;SDS011;39320;53.214;6.556;2023-04-09T09:04:45;15.68;;;14.07;;
51907;SDS011;39320;53.214;6.556;2023-04-09T09:07:13;15.30;;;13.65;;
51907;SDS011;39320;53.214;6.556;2023-04-09T09:09:49;14.77;;;13.00;;
51907;SDS011;39320;53.214;6.556;2023-04-09T09:15:03;14.45;;;12.88;;
51907;SDS011;39320;53.214;6.556;2023-04-09T09:17:30;14.40;;;12.90;;
51907;SDS011;39320;53.214;6.556;2023-04-09T09:19:57;15.38;;;13.20;;
51907;SDS011;39320;53.214;6.556;2023-04-09T09:22:23;15.55;;;13.55;;
51907;SDS011;39320;53.214;6.556;2023-04-09T09:24:50;14.95;;;13.45;;
51907;SDS011;39320;53.214;6.556;2023-04-09T09:27:29;15.32;;;13.20;;
51907;SDS011;39320;53.214;6.556;2023-04-09T09:30:00;18.10;;;13.80;;
51907;SDS011;39320;53.214;6.556;2023-04-09T09:32:28;16.35;;;14.65;;
51907;SDS011;39320;53.214;6.556;2023-04-09T09:35:04;15.43;;;13.68;;
51907;SDS011;39320;53.214;6.556;2023-04-09T09:37:31;15.05;;;13.40;;
51907;SDS011;39320;53.214;6.556;2023-04-09T09:39:58;15.25;;;13.68;;
51907;SDS011;39320;53.214;6.556;2023-04-09T09:42:24;16.60;;;14.23;;
51907;SDS011;39320;53.214;6.556;2023-04-09T09:44:54;15.57;;;13.98;;
51907;SDS011;39320;53.214;6.556;2023-04-09T09:47:21;15.75;;;14.07;;
51907;SDS011;39320;53.214;6.556;2023-04-09T09:49:47;15.10;;;13.65;;
51907;SDS011;39320;53.214;6.556;2023-04-09T09:52:20;15.90;;;14.30;;
51907;SDS011;39320;53.214;6.556;2023-04-09T09:57:19;16.80;;;13.80;;
51907;SDS011;39320;53.214;6.556;2023-04-09T09:59:58;16.77;;;15.15;;
51907;SDS011;39320;53.214;6.556;2023-04-09T10:02:26;15.25;;;13.70;;
51907;SDS011;39320;53.214;6.556;2023-04-09T10:04:58;15.60;;;13.70;;
51907;SDS011;39320;53.214;6.556;2023-04-09T10:07:25;15.23;;;13.63;;
51907;SDS011;39320;53.214;6.556;2023-04-09T10:09:52;15.20;;;13.60;;
51907;SDS011;39320;53.214;6.556;2023-04-09T10:12:20;16.00;;;12.85;;
51907;SDS011;39320;53.214;6.556;2023-04-09T10:14:50;14.93;;;13.18;;
51907;SDS011;39320;53.214;6.556;2023-04-09T10:17:19;15.73;;;14.13;;
51907;SDS011;39320;53.214;6.556;2023-04-09T10:19:48;14.88;;;13.40;;
51907;SDS011;39320;53.214;6.556;2023-04-09T10:22:29;15.45;;;13.80;;
51907;SDS011;39320;53.214;6.556;2023-04-09T10:24:57;16.42;;;14.73;;
51907;SDS011;39320;53.214;6.556;2023-04-09T10:27:24;15.57;;;13.98;;
51907;SDS011;39320;53.214;6.556;2023-04-09T10:29:52;16.50;;;14.90;;
51907;SDS011;39320;53.214;6.556;2023-04-09T10:32:18;15.82;;;14.13;;
51907;SDS011;39320;53.214;6.556;2023-04-09T10:34:48;15.90;;;14.30;;
51907;SDS011;39320;53.214;6.556;2023-04-09T10:37:19;16.58;;;14.80;;
51907;SDS011;39320;53.214;6.556;2023-04-09T10:39:46;16.95;;;14.70;;
51907;SDS011;39320;53.214;6.556;2023-04-09T10:42:34;14.57;;;13.10;;
51907;SDS011;39320;53.214;6.556;2023-04-09T10:45:11;16.50;;;14.50;;
51907;SDS011;39320;53.214;6.556;2023-04-09T10:47:39;16.75;;;14.93;;
51907;SDS011;39320;53.214;6.556;2023-04-09T10:50:26;16.48;;;14.85;;
51907;SDS011;39320;53.214;6.556;2023-04-09T10:52:53;15.98;;;14.30;;
51907;SDS011;39320;53.214;6.556;2023-04-09T10:55:34;16.38;;;14.68;;
51907;SDS011;39320;53.214;6.556;2023-04-09T10:58:07;16.20;;;14.50;;
51907;SDS011;39320;53.214;6.556;2023-04-09T11:00:38;16.80;;;15.00;;
51907;SDS011;39320;53.214;6.556;2023-04-09T11:05:49;17.40;;;15.50;;
51907;SDS011;39320;53.214;6.556;2023-04-09T11:08:19;16.23;;;14.48;;
51907;SDS011;39320;53.214;6.556;2023-04-09T11:10:46;16.52;;;14.93;;
51907;SDS011;39320;53.214;6.556;2023-04-09T11:13:16;15.73;;;14.13;;
51907;SDS011;39320;53.214;6.556;2023-04-09T11:15:43;16.50;;;14.82;;
51907;SDS011;39320;53.214;6.556;2023-04-09T11:18:13;14.93;;;13.40;;
51907;SDS011;39320;53.214;6.556;2023-04-09T11:20:46;14.63;;;13.13;;
51907;SDS011;39320;53.214;6.556;2023-04-09T11:23:12;14.63;;;13.13;;
51907;SDS011;39320;53.214;6.556;2023-04-09T11:25:39;15.90;;;13.95;;
51907;SDS011;39320;53.214;6.556;2023-04-09T11:28:05;14.40;;;12.95;;
51907;SDS011;39320;53.214;6.556;2023-04-09T11:30:32;15.65;;;14.02;;
51907;SDS011;39320;53.214;6.556;2023-04-09T11:32:59;15.65;;;13.98;;
51907;SDS011;39320;53.214;6.556;2023-04-09T11:35:25;16.95;;;14.07;;
51907;SDS011;39320;53.214;6.556;2023-04-09T11:37:52;16.13;;;14.43;;
51907;SDS011;39320;53.214;6.556;2023-04-09T11:40:22;15.75;;;14.13;;
51907;SDS011;39320;53.214;6.556;2023-04-09T11:42:53;14.85;;;13.43;;
51907;SDS011;39320;53.214;6.556;2023-04-09T11:45:24;15.10;;;13.60;;
51907;SDS011;39320;53.214;6.556;2023-04-09T11:47:51;13.68;;;12.43;;
51907;SDS011;39320;53.214;6.556;2023-04-09T11:50:18;17.92;;;14.13;;
51907;SDS011;39320;53.214;6.556;2023-04-09T11:52:45;15.63;;;14.05;;
51907;SDS011;39320;53.214;6.556;2023-04-09T11:55:11;15.43;;;13.15;;
51907;SDS011;39320;53.214;6.556;2023-04-09T12:02:40;13.45;;;11.68;;
51907;SDS011;39320;53.214;6.556;2023-04-09T12:05:09;14.57;;;13.10;;
51907;SDS011;39320;53.214;6.556;2023-04-09T12:08:00;14.90;;;13.38;;
51907;SDS011;39320;53.214;6.556;2023-04-09T12:10:35;17.20;;;14.30;;
51907;SDS011;39320;53.214;6.556;2023-04-09T12:13:06;14.75;;;13.18;;
51907;SDS011;39320;53.214;6.556;2023-04-09T12:15:35;13.82;;;12.43;;
51907;SDS011;39320;53.214;6.556;2023-04-09T12:18:02;13.52;;;12.18;;
51907;SDS011;39320;53.214;6.556;2023-04-09T12:20:33;12.75;;;11.63;;
51907;SDS011;39320;53.214;6.556;2023-04-09T12:22:59;13.25;;;11.85;;
51907;SDS011;39320;53.214;6.556;2023-04-09T12:25:28;12.15;;;10.63;;
51907;SDS011;39320;53.214;6.556;2023-04-09T12:27:55;12.75;;;11.55;;
51907;SDS011;39320;53.214;6.556;2023-04-09T12:30:21;11.60;;;10.45;;
51907;SDS011;39320;53.214;6.556;2023-04-09T12:32:48;12.65;;;11.35;;
51907;SDS011;39320;53.214;6.556;2023-04-09T12:35:14;12.38;;;10.82;;
51907;SDS011;39320;53.214;6.556;2023-04-09T12:37:41;12.50;;;11.20;;
51907;SDS011;39320;53.214;6.556;2023-04-09T12:40:07;10.43;;;9.43;;
51907;SDS011;39320;53.214;6.556;2023-04-09T12:42:34;10.98;;;9.73;;
51907;SDS011;39320;53.214;6.556;2023-04-09T12:45:00;11.93;;;10.75;;
51907;SDS011;39320;53.214;6.556;2023-04-09T12:47:26;12.05;;;10.77;;
51907;SDS011;39320;53.214;6.556;2023-04-09T12:49:53;11.52;;;10.32;;
51907;SDS011;39320;53.214;6.556;2023-04-09T12:52:19;11.07;;;10.07;;
51907;SDS011;39320;53.214;6.556;2023-04-09T12:54:46;12.65;;;11.35;;
51907;SDS011;39320;53.214;6.556;2023-04-09T12:57:12;13.40;;;11.38;;
51907;SDS011;39320;53.214;6.556;2023-04-09T12:59:38;12.63;;;11.27;;
51907;SDS011;39320;53.214;6.556;2023-04-09T13:02:04;11.93;;;10.40;;
51907;SDS011;39320;53.214;6.556;2023-04-09T13:04:30;11.77;;;10.57;;
51907;SDS011;39320;53.214;6.556;2023-04-09T13:06:56;11.75;;;10.57;;
51907;SDS011;39320;53.214;6.556;2023-04-09T13:09:24;11.02;;;9.98;;
51907;SDS011;39320;53.214;6.556;2023-04-09T13:11:50;11.77;;;10.63;;
51907;SDS011;39320;53.214;6.556;2023-04-09T13:14:16;10.90;;;9.90;;
51907;SDS011;39320;53.214;6.556;2023-04-09T13:16:42;11.65;;;10.45;;
51907;SDS011;39320;53.214;6.556;2023-04-09T13:19:08;12.48;;;11.07;;
51907;SDS011;39320;53.214;6.556;2023-04-09T13:21:34;10.60;;;9.50;;
51907;SDS011;39320;53.214;6.556;2023-04-09T13:24:01;11.40;;;10.20;;
51907;SDS011;39320;53.214;6.556;2023-04-09T13:26:29;12.38;;;11.07;;
51907;SDS011;39320;53.214;6.556;2023-04-09T13:28:55;12.35;;;11.07;;
51907;SDS011;39320;53.214;6.556;2023-04-09T13:31:21;11.73;;;10.52;;
51907;SDS011;39320;53.214;6.556;2023-04-09T13:33:47;10.90;;;9.90;;
51907;SDS011;39320;53.214;6.556;2023-04-09T13:36:12;11.25;;;10.15;;
51907;SDS011;39320;53.214;6.556;2023-04-09T13:38:38;12.10;;;10.70;;
51907;SDS011;39320;53.214;6.556;2023-04-09T13:41:04;12.48;;;11.25;;
51907;SDS011;39320;53.214;6.556;2023-04-09T13:43:30;11.50;;;10.35;;
51907;SDS011;39320;53.214;6.556;2023-04-09T13:45:56;11.30;;;10.30;;
51907;SDS011;39320;53.214;6.556;2023-04-09T13:48:22;13.10;;;11.70;;
51907;SDS011;39320;53.214;6.556;2023-04-09T13:50:49;10.95;;;9.85;;
51907;SDS011;39320;53.214;6.556;2023-04-09T13:53:15;12.30;;;11.00;;
51907;SDS011;39320;53.214;6.556;2023-04-09T13:55:42;11.68;;;10.27;;
51907;SDS011;39320;53.214;6.556;2023-04-09T13:58:08;11.93;;;10.48;;
51907;SDS011;39320;53.214;6.556;2023-04-09T14:00:34;11.10;;;10.00;;
51907;SDS011;39320;53.214;6.556;2023-04-09T14:03:01;10.90;;;9.80;;
51907;SDS011;39320;53.214;6.556;2023-04-09T14:05:28;10.98;;;9.90;;
51907;SDS011;39320;53.214;6.556;2023-04-09T14:07:57;10.25;;;9.15;;
51907;SDS011;39320;53.214;6.556;2023-04-09T14:10:23;11.00;;;9.90;;
51907;SDS011;39320;53.214;6.556;2023-04-09T14:12:50;9.40;;;8.50;;
51907;SDS011;39320;53.214;6.556;2023-04-09T14:15:38;10.55;;;9.45;;
51907;SDS011;39320;53.214;6.556;2023-04-09T14:18:05;9.85;;;8.82;;
51907;SDS011;39320;53.214;6.556;2023-04-09T14:20:32;11.00;;;9.85;;
51907;SDS011;39320;53.214;6.556;2023-04-09T14:23:06;9.88;;;8.90;;
51907;SDS011;39320;53.214;6.556;2023-04-09T14:25:32;10.43;;;9.40;;
51907;SDS011;39320;53.214;6.556;2023-04-09T14:27:57;10.60;;;9.60;;
51907;SDS011;39320;53.214;6.556;2023-04-09T14:30:26;10.60;;;9.50;;
51907;SDS011;39320;53.214;6.556;2023-04-09T14:32:52;10.48;;;9.43;;
51907;SDS011;39320;53.214;6.556;2023-04-09T14:35:18;9.65;;;8.65;;
51907;SDS011;39320;53.214;6.556;2023-04-09T14:37:44;9.68;;;8.55;;
51907;SDS011;39320;53.214;6.556;2023-04-09T14:40:11;9.10;;;8.10;;
51907;SDS011;39320;53.214;6.556;2023-04-09T14:42:37;9.25;;;8.35;;
51907;SDS011;39320;53.214;6.556;2023-04-09T14:45:04;9.55;;;8.65;;
51907;SDS011;39320;53.214;6.556;2023-04-09T14:47:30;8.13;;;7.32;;
51907;SDS011;39320;53.214;6.556;2023-04-09T14:49:56;9.15;;;7.78;;